Time,TemperatureF,DewpointF,PressureIn,WindDirection,WindDirectionDegrees,WindSpeedMPH,WindSpeedGustMPH,Humidity,HourlyPrecipIn,Conditions,Clouds,dailyrainin,SolarRadiationWatts/m^2,SoftwareType,DateUTC
2013-01-10 00:03:00,58.1,57.0,30.33,East,98,0.0,0.0,96,0.00,,,0.00,0,Wunderground v.1.15,2013-01-10 05:03:00,
2013-01-10 00:13:00,57.8,56.7,30.33,East,98,0.0,0.0,96,0.00,,,0.00,0,Wunderground v.1.15,2013-01-10 05:13:00,
2013-01-10 00:23:00,57.6,56.8,30.33,East,99,0.0,0.0,97,0.00,,,0.00,0,Wunderground v.1.15,2013-01-10 05:23:00,
2013-01-10 00:33:00,57.4,56.6,30.33,East,98,0.0,0.0,97,0.00,,,0.00,0,Wunderground v.1.15,2013-01-10 05:33:00,
2013-01-10 00:43:00,57.3,56.5,30.33,East,98,0.0,0.0,97,0.00,,,0.00,0,Wunderground v.1.15,2013-01-10 05:43:00,
2013-01-10 00:53:00,57.1,56.3,30.33,East,98,0.0,0.0,97,0.00,,,0.00,0,Wunderground v.1.15,2013-01-10 05:53:00,
2013-01-10 01:03:00,57.6,57.0,30.33,East,98,0.0,0.0,98,0.00,,,0.00,0,Wunderground v.1.15,2013-01-10 06:03:00,
2013-01-10 01:13:00,57.8,57.2,30.33,East,98,0.0,0.0,98,0.00,,,0.00,0,Wunderground v.1.15,2013-01-10 06:13:00,
2013-01-10 01:23:00,57.9,57.3,30.33,East,98,0.0,0.0,98,0.00,,,0.00,0,Wunderground v.1.15,2013-01-10 06:23:00,
2013-01-10 01:33:00,57.9,57.3,30.33,East,98,0.0,0.0,98,0.00,,,0.00,0,Wunderground v.1.15,2013-01-10 06:33:00,
2013-01-10 01:43:00,57.9,57.3,30.33,East,98,0.0,0.0,98,0.00,,,0.00,0,Wunderground v.1.15,2013-01-10 06:43:00,
2013-01-10 01:53:00,57.8,57.2,30.33,East,98,0.0,0.0,98,0.00,,,0.00,0,Wunderground v.1.15,2013-01-10 06:53:00,
2013-01-10 02:03:00,57.6,56.8,30.33,East,98,0.0,0.0,97,0.00,,,0.00,0,Wunderground v.1.15,2013-01-10 07:03:00,
2013-01-10 02:13:00,57.5,56.9,30.33,East,98,0.0,0.0,98,0.00,,,0.00,0,Wunderground v.1.15,2013-01-10 07:13:00,
2013-01-10 02:23:00,57.5,56.9,30.33,East,98,0.0,0.0,98,0.00,,,0.00,0,Wunderground v.1.15,2013-01-10 07:23:00,
2013-01-10 02:33:00,57.7,57.1,30.33,East,98,0.0,0.0,98,0.00,,,0.00,0,Wunderground v.1.15,2013-01-10 07:33:00,
2013-01-10 02:43:00,57.9,57.3,30.33,East,98,0.0,0.0,98,0.00,,,0.00,0,Wunderground v.1.15,2013-01-10 07:43:00,
2013-01-10 02:53:00,58.2,57.6,30.33,NNE,20,0.0,0.0,98,0.00,,,0.00,0,Wunderground v.1.15,2013-01-10 07:53:00,
2013-01-10 03:03:00,58.3,57.7,30.33,North,352,0.0,0.0,98,0.00,,,0.00,0,Wunderground v.1.15,2013-01-10 08:03:00,
2013-01-10 03:13:00,58.4,57.8,30.33,NNW,348,0.0,0.0,98,0.00,,,0.00,0,Wunderground v.1.15,2013-01-10 08:13:00,
2013-01-10 03:23:00,58.6,58.0,30.33,NNW,348,0.0,0.0,98,0.00,,,0.00,0,Wunderground v.1.15,2013-01-10 08:23:00,
2013-01-10 03:33:00,58.8,58.2,30.33,NNW,348,0.0,0.0,98,0.00,,,0.00,0,Wunderground v.1.15,2013-01-10 08:33:00,
2013-01-10 03:43:00,59.0,58.4,30.33,NNW,348,0.0,2.0,98,0.00,,,0.00,0,Wunderground v.1.15,2013-01-10 08:43:00,
2013-01-10 03:53:00,59.3,59.0,30.33,NNE,24,1.0,1.0,99,0.00,,,0.00,0,Wunderground v.1.15,2013-01-10 08:53:00,
2013-01-10 04:03:00,59.5,58.9,30.33,North,3,1.0,1.0,98,0.00,,,0.00,0,Wunderground v.1.15,2013-01-10 09:03:00,
2013-01-10 04:13:00,59.5,58.9,30.33,North,3,0.0,0.0,98,0.00,,,0.00,0,Wunderground v.1.15,2013-01-10 09:13:00,
2013-01-10 04:23:00,59.5,58.9,30.33,North,3,0.0,0.0,98,0.00,,,0.00,0,Wunderground v.1.15,2013-01-10 09:23:00,
2013-01-10 04:33:00,59.6,59.0,30.33,North,3,0.0,0.0,98,0.00,,,0.00,0,Wunderground v.1.15,2013-01-10 09:33:00,
2013-01-10 04:43:00,59.5,58.9,30.33,NNW,331,0.0,1.0,98,0.00,,,0.00,0,Wunderground v.1.15,2013-01-10 09:43:00,
2013-01-10 04:53:00,59.4,58.8,30.32,NNW,327,0.0,1.0,98,0.00,,,0.00,0,Wunderground v.1.15,2013-01-10 09:53:00,
2013-01-10 05:03:00,59.5,58.9,30.32,NNW,327,0.0,0.0,98,0.00,,,0.00,0,Wunderground v.1.15,2013-01-10 10:03:00,
2013-01-10 05:13:00,59.5,58.9,30.32,NNW,327,0.0,0.0,98,0.00,,,0.00,0,Wunderground v.1.15,2013-01-10 10:13:00,
2013-01-10 05:23:00,59.8,59.5,30.33,NNW,327,0.0,0.0,99,0.00,,,0.00,0,Wunderground v.1.15,2013-01-10 10:23:00,
2013-01-10 05:33:00,59.9,59.6,30.33,NNW,327,0.0,0.0,99,0.00,,,0.00,0,Wunderground v.1.15,2013-01-10 10:33:00,
2013-01-10 05:43:00,59.9,59.6,30.33,NNW,327,0.0,1.0,99,0.00,,,0.00,0,Wunderground v.1.15,2013-01-10 10:43:00,
2013-01-10 05:53:00,59.8,59.2,30.33,NNW,327,0.0,0.0,98,0.00,,,0.00,0,Wunderground v.1.15,2013-01-10 10:53:00,
2013-01-10 06:03:00,59.6,59.0,30.34,NNW,327,0.0,0.0,98,0.00,,,0.00,0,Wunderground v.1.15,2013-01-10 11:03:00,
2013-01-10 06:13:00,59.4,58.8,30.34,NNW,338,0.0,0.0,98,0.00,,,0.00,0,Wunderground v.1.15,2013-01-10 11:13:00,
2013-01-10 06:23:00,59.3,58.7,30.35,NNW,338,0.0,1.0,98,0.00,,,0.00,0,Wunderground v.1.15,2013-01-10 11:23:00,
2013-01-10 06:33:00,59.2,58.6,30.34,NNE,21,0.0,3.0,98,0.00,,,0.00,0,Wunderground v.1.15,2013-01-10 11:33:00,
2013-01-10 06:43:00,59.1,58.5,30.34,NNE,13,1.0,2.0,98,0.00,,,0.00,0,Wunderground v.1.15,2013-01-10 11:43:00,
2013-01-10 06:53:00,59.0,58.4,30.34,North,9,1.0,2.0,98,0.00,,,0.00,0,Wunderground v.1.15,2013-01-10 11:53:00,
2013-01-10 07:03:00,58.7,58.1,30.35,North,354,1.0,1.0,98,0.00,,,0.00,0,Wunderground v.1.15,2013-01-10 12:03:00,
2013-01-10 07:13:00,58.7,58.1,30.35,North,359,1.0,4.0,98,0.00,,,0.00,0,Wunderground v.1.15,2013-01-10 12:13:00,
2013-01-10 07:23:00,58.7,58.1,30.35,NNE,15,1.0,1.0,98,0.00,,,0.00,0,Wunderground v.1.15,2013-01-10 12:23:00,
2013-01-10 07:33:00,58.6,57.8,30.36,NW,312,0.0,1.0,97,0.00,,,0.00,7,Wunderground v.1.15,2013-01-10 12:33:00,
2013-01-10 07:43:00,58.5,57.7,30.36,North,11,0.0,0.0,97,0.00,,,0.00,14,Wunderground v.1.15,2013-01-10 12:43:00,
2013-01-10 07:53:00,58.4,57.6,30.36,North,11,0.0,1.0,97,0.00,,,0.00,19,Wunderground v.1.15,2013-01-10 12:53:00,
2013-01-10 08:03:00,58.4,57.6,30.37,North,8,0.0,0.0,97,0.00,,,0.00,25,Wunderground v.1.15,2013-01-10 13:03:00,
2013-01-10 08:13:00,58.5,57.7,30.37,NNE,20,1.0,2.0,97,0.00,,,0.00,42,Wunderground v.1.15,2013-01-10 13:13:00,
2013-01-10 08:23:00,58.7,57.9,30.38,NNE,30,1.0,1.0,97,0.00,,,0.00,76,Wunderground v.1.15,2013-01-10 13:23:00,
2013-01-10 08:33:00,58.9,58.1,30.38,NNE,30,0.0,1.0,97,0.00,,,0.00,95,Wunderground v.1.15,2013-01-10 13:33:00,
2013-01-10 08:43:00,59.2,58.3,30.38,NNE,14,0.0,1.0,97,0.00,,,0.00,95,Wunderground v.1.15,2013-01-10 13:43:00,
2013-01-10 08:53:00,59.5,58.4,30.38,NNE,30,1.0,1.0,96,0.00,,,0.00,76,Wunderground v.1.15,2013-01-10 13:53:00,
2013-01-10 09:03:00,60.0,58.9,30.38,North,7,1.0,1.0,96,0.00,,,0.00,132,Wunderground v.1.15,2013-01-10 14:03:00,
2013-01-10 09:13:00,60.8,59.4,30.38,North,5,2.0,2.0,95,0.00,,,0.00,97,Wunderground v.1.15,2013-01-10 14:13:00,
2013-01-10 09:23:00,61.3,59.6,30.38,NNE,25,1.0,3.0,94,0.00,,,0.00,132,Wunderground v.1.15,2013-01-10 14:23:00,
2013-01-10 09:33:00,62.0,60.0,30.38,NW,321,1.0,1.0,93,0.00,,,0.00,197,Wunderground v.1.15,2013-01-10 14:33:00,
2013-01-10 09:43:00,62.8,60.1,30.38,ENE,77,1.0,1.0,91,0.00,,,0.00,149,Wunderground v.1.15,2013-01-10 14:43:00,
2013-01-10 09:53:00,63.1,60.1,30.38,ENE,59,1.0,1.0,90,0.00,,,0.00,186,Wunderground v.1.15,2013-01-10 14:53:00,
2013-01-10 10:03:00,63.4,60.1,30.38,ENE,62,2.0,2.0,89,0.00,,,0.00,172,Wunderground v.1.15,2013-01-10 15:03:00,
2013-01-10 10:13:00,63.8,60.5,30.38,ENE,57,1.0,1.0,89,0.00,,,0.00,163,Wunderground v.1.15,2013-01-10 15:13:00,
2013-01-10 10:23:00,64.1,60.5,30.37,NNE,30,2.0,2.0,88,0.00,,,0.00,139,Wunderground v.1.15,2013-01-10 15:23:00,
2013-01-10 10:33:00,64.1,60.2,30.37,North,2,2.0,2.0,87,0.00,,,0.00,195,Wunderground v.1.15,2013-01-10 15:33:00,
2013-01-10 10:43:00,64.3,60.3,30.37,North,356,1.0,2.0,87,0.00,,,0.00,192,Wunderground v.1.15,2013-01-10 15:43:00,
2013-01-10 10:53:00,65.0,60.7,30.36,NNE,25,2.0,2.0,86,0.00,,,0.00,167,Wunderground v.1.15,2013-01-10 15:53:00,
2013-01-10 11:03:00,65.3,61.0,30.36,NNE,30,2.0,3.0,86,0.00,,,0.00,142,Wunderground v.1.15,2013-01-10 16:03:00,
2013-01-10 11:13:00,65.5,60.9,30.36,North,1,2.0,5.0,85,0.00,,,0.00,185,Wunderground v.1.15,2013-01-10 16:13:00,
2013-01-10 11:23:00,66.0,61.4,30.35,ENE,71,2.0,4.0,85,0.00,,,0.00,229,Wunderground v.1.15,2013-01-10 16:23:00,
2013-01-10 11:33:00,66.7,61.4,30.34,NE,54,2.0,2.0,83,0.00,,,0.00,295,Wunderground v.1.15,2013-01-10 16:33:00,
2013-01-10 11:43:00,67.0,61.0,30.34,ENE,59,2.0,2.0,81,0.00,,,0.00,171,Wunderground v.1.15,2013-01-10 16:43:00,
2013-01-10 11:53:00,67.3,61.3,30.33,NNE,21,2.0,2.0,81,0.00,,,0.00,132,Wunderground v.1.15,2013-01-10 16:53:00,
2013-01-10 12:03:00,66.8,60.8,30.33,NNE,31,2.0,2.0,81,0.00,,,0.00,146,Wunderground v.1.15,2013-01-10 17:03:00,
2013-01-10 12:13:00,66.3,60.3,30.33,NNE,17,2.0,2.0,81,0.00,,,0.00,114,Wunderground v.1.15,2013-01-10 17:13:00,
2013-01-10 12:23:00,66.0,59.3,30.33,NNE,25,3.0,3.0,79,0.00,,,0.00,137,Wunderground v.1.15,2013-01-10 17:23:00,
2013-01-10 12:33:00,65.8,58.7,30.33,NE,56,2.0,5.0,78,0.00,,,0.00,116,Wunderground v.1.15,2013-01-10 17:33:00,
2013-01-10 12:43:00,65.6,58.2,30.33,NE,42,3.0,3.0,77,0.00,,,0.00,148,Wunderground v.1.15,2013-01-10 17:43:00,
2013-01-10 12:53:00,65.4,57.6,30.32,SE,129,3.0,7.0,76,0.00,,,0.00,113,Wunderground v.1.15,2013-01-10 17:53:00,
2013-01-10 13:03:00,65.1,57.3,30.32,ESE,104,3.0,3.0,76,0.00,,,0.00,116,Wunderground v.1.15,2013-01-10 18:03:00,
2013-01-10 13:13:00,64.9,57.2,30.32,NNE,29,2.0,2.0,76,0.00,,,0.00,111,Wunderground v.1.15,2013-01-10 18:13:00,
2013-01-10 13:23:00,65.0,56.9,30.32,WSW,238,3.0,3.0,75,0.00,,,0.00,155,Wunderground v.1.15,2013-01-10 18:23:00,
2013-01-10 13:33:00,65.2,56.7,30.32,North,9,3.0,3.0,74,0.00,,,0.00,155,Wunderground v.1.15,2013-01-10 18:33:00,
2013-01-10 13:43:00,65.2,56.7,30.32,NE,46,3.0,3.0,74,0.00,,,0.00,127,Wunderground v.1.15,2013-01-10 18:43:00,
2013-01-10 13:53:00,65.3,56.8,30.32,NNE,18,2.0,2.0,74,0.00,,,0.00,146,Wunderground v.1.15,2013-01-10 18:53:00,
2013-01-10 14:03:00,65.3,57.2,30.32,NNE,13,2.0,2.0,75,0.00,,,0.00,156,Wunderground v.1.15,2013-01-10 19:03:00,
2013-01-10 14:13:00,65.2,57.8,30.32,NE,40,3.0,3.0,77,0.00,,,0.00,141,Wunderground v.1.15,2013-01-10 19:13:00,
2013-01-10 14:23:00,63.6,58.7,30.32,North,9,3.0,3.0,84,0.00,,,0.00,102,Wunderground v.1.15,2013-01-10 19:23:00,
2013-01-10 14:33:00,61.6,58.0,30.33,North,2,3.0,5.0,88,0.00,,,0.01,54,Wunderground v.1.15,2013-01-10 19:33:00,
2013-01-10 14:43:00,61.3,58.0,30.33,North,352,2.0,2.0,89,0.00,,,0.01,95,Wunderground v.1.15,2013-01-10 19:43:00,
2013-01-10 14:53:00,61.6,58.0,30.33,NNE,27,1.0,1.0,88,0.00,,,0.01,102,Wunderground v.1.15,2013-01-10 19:53:00,
2013-01-10 15:03:00,62.0,58.4,30.32,NNE,27,1.0,1.0,88,0.00,,,0.01,98,Wunderground v.1.15,2013-01-10 20:03:00,
2013-01-10 15:13:00,62.3,58.7,30.32,NE,40,1.0,2.0,88,0.00,,,0.01,132,Wunderground v.1.15,2013-01-10 20:13:00,
2013-01-10 15:23:00,62.5,59.2,30.32,NNE,27,1.0,1.0,89,0.00,,,0.01,56,Wunderground v.1.15,2013-01-10 20:23:00,
2013-01-10 15:33:00,62.0,59.3,30.33,NNE,19,1.0,1.0,91,0.00,,,0.01,69,Wunderground v.1.15,2013-01-10 20:33:00,
2013-01-10 15:43:00,61.6,59.6,30.33,East,82,1.0,3.0,93,0.00,,,0.02,63,Wunderground v.1.15,2013-01-10 20:43:00,
2013-01-10 15:53:00,61.3,59.6,30.33,NNE,21,1.0,2.0,94,0.00,,,0.02,56,Wunderground v.1.15,2013-01-10 20:53:00,
2013-01-10 16:03:00,61.2,59.8,30.33,NE,42,1.0,4.0,95,0.00,,,0.03,46,Wunderground v.1.15,2013-01-10 21:03:00,
2013-01-10 16:13:00,61.1,60.0,30.33,North,356,2.0,2.0,96,0.04,,,0.04,21,Wunderground v.1.15,2013-01-10 21:13:00,
2013-01-10 16:23:00,60.8,59.7,30.32,NNE,20,1.0,1.0,96,0.04,,,0.04,18,Wunderground v.1.15,2013-01-10 21:23:00,
2013-01-10 16:33:00,60.6,59.5,30.33,NE,42,2.0,2.0,96,0.00,,,0.04,18,Wunderground v.1.15,2013-01-10 21:33:00,
2013-01-10 16:43:00,60.6,59.7,30.33,North,3,1.0,1.0,97,0.00,,,0.04,25,Wunderground v.1.15,2013-01-10 21:43:00,
2013-01-10 16:53:00,60.7,59.8,30.32,NNE,18,1.0,1.0,97,0.00,,,0.04,32,Wunderground v.1.15,2013-01-10 21:53:00,
2013-01-10 17:03:00,60.6,59.7,30.32,NNE,21,1.0,1.0,97,0.00,,,0.04,32,Wunderground v.1.15,2013-01-10 22:03:00,
2013-01-10 17:13:00,60.5,59.6,30.32,NNE,23,1.0,1.0,97,0.00,,,0.04,11,Wunderground v.1.15,2013-01-10 22:13:00,
2013-01-10 17:23:00,60.2,59.3,30.32,NNE,27,1.0,1.0,97,0.00,,,0.04,0,Wunderground v.1.15,2013-01-10 22:23:00,
2013-01-10 17:33:00,60.0,59.1,30.32,North,11,1.0,1.0,97,0.00,,,0.04,0,Wunderground v.1.15,2013-01-10 22:33:00,
2013-01-10 17:43:00,59.8,58.9,30.32,NNE,14,1.0,1.0,97,0.00,,,0.04,0,Wunderground v.1.15,2013-01-10 22:43:00,
2013-01-10 17:53:00,59.8,58.9,30.31,NNE,17,1.0,1.0,97,0.00,,,0.04,0,Wunderground v.1.15,2013-01-10 22:53:00,
2013-01-10 18:03:00,59.7,58.8,30.32,North,4,2.0,2.0,97,0.00,,,0.04,0,Wunderground v.1.15,2013-01-10 23:03:00,
2013-01-10 18:13:00,59.8,59.2,30.32,NNE,19,1.0,2.0,98,0.00,,,0.04,0,Wunderground v.1.15,2013-01-10 23:13:00,
2013-01-10 18:23:00,59.8,59.2,30.31,North,9,1.0,1.0,98,0.00,,,0.04,0,Wunderground v.1.15,2013-01-10 23:23:00,
2013-01-10 18:33:00,59.9,59.3,30.32,North,1,1.0,1.0,98,0.00,,,0.04,0,Wunderground v.1.15,2013-01-10 23:33:00,
2013-01-10 18:43:00,60.0,59.4,30.32,NNW,346,1.0,1.0,98,0.00,,,0.04,0,Wunderground v.1.15,2013-01-10 23:43:00,
2013-01-10 18:53:00,60.0,59.4,30.32,East,84,1.0,1.0,98,0.00,,,0.04,0,Wunderground v.1.15,2013-01-10 23:53:00,
2013-01-10 19:03:00,60.0,59.4,30.33,ENE,75,1.0,1.0,98,0.00,,,0.04,0,Wunderground v.1.15,2013-01-11 00:03:00,
2013-01-10 19:13:00,59.9,59.3,30.33,NNE,29,1.0,1.0,98,0.00,,,0.04,0,Wunderground v.1.15,2013-01-11 00:13:00,
2013-01-10 19:23:00,59.9,59.3,30.33,East,86,1.0,1.0,98,0.00,,,0.04,0,Wunderground v.1.15,2013-01-11 00:23:00,
2013-01-10 19:33:00,59.6,59.0,30.33,ENE,77,0.0,0.0,98,0.00,,,0.04,0,Wunderground v.1.15,2013-01-11 00:33:00,
2013-01-10 19:43:00,59.4,58.8,30.33,NNE,17,1.0,1.0,98,0.00,,,0.04,0,Wunderground v.1.15,2013-01-11 00:43:00,
2013-01-10 19:53:00,59.0,58.4,30.33,ENE,66,2.0,2.0,98,0.00,,,0.04,0,Wunderground v.1.15,2013-01-11 00:53:00,
2013-01-10 20:03:00,58.4,57.6,30.33,NE,56,2.0,2.0,97,0.00,,,0.04,0,Wunderground v.1.15,2013-01-11 01:03:00,
2013-01-10 20:13:00,58.2,57.4,30.33,North,11,2.0,2.0,97,0.00,,,0.04,0,Wunderground v.1.15,2013-01-11 01:13:00,
2013-01-10 20:33:00,58.0,57.2,30.33,North,352,1.0,4.0,97,0.00,,,0.04,0,Wunderground v.1.15,2013-01-11 01:33:00,
2013-01-10 20:43:00,57.9,57.1,30.33,NNE,28,1.0,2.0,97,0.00,,,0.04,0,Wunderground v.1.15,2013-01-11 01:43:00,
2013-01-10 20:53:00,57.4,56.6,30.33,North,1,1.0,1.0,97,0.00,,,0.04,0,Wunderground v.1.15,2013-01-11 01:53:00,
2013-01-10 21:03:00,57.2,56.4,30.33,North,10,1.0,2.0,97,0.00,,,0.04,0,Wunderground v.1.15,2013-01-11 02:03:00,
2013-01-10 21:13:00,57.2,56.4,30.33,East,81,1.0,1.0,97,0.00,,,0.04,0,Wunderground v.1.15,2013-01-11 02:13:00,
2013-01-10 21:23:00,57.0,56.2,30.32,NE,36,1.0,1.0,97,0.00,,,0.04,0,Wunderground v.1.15,2013-01-11 02:23:00,
2013-01-10 21:33:00,57.0,56.2,30.32,NNE,14,1.0,1.0,97,0.00,,,0.04,0,Wunderground v.1.15,2013-01-11 02:33:00,
2013-01-10 21:43:00,56.9,56.1,30.32,North,10,1.0,2.0,97,0.00,,,0.04,0,Wunderground v.1.15,2013-01-11 02:43:00,
2013-01-10 21:53:00,57.0,56.2,30.32,North,11,1.0,1.0,97,0.00,,,0.04,0,Wunderground v.1.15,2013-01-11 02:53:00,
2013-01-10 22:03:00,57.1,56.3,30.31,NE,54,1.0,1.0,97,0.00,,,0.04,0,Wunderground v.1.15,2013-01-11 03:03:00,
2013-01-10 22:13:00,57.2,56.4,30.31,North,5,1.0,1.0,97,0.00,,,0.04,0,Wunderground v.1.15,2013-01-11 03:13:00,
2013-01-10 22:23:00,57.3,56.5,30.30,NNE,20,1.0,1.0,97,0.00,,,0.04,0,Wunderground v.1.15,2013-01-11 03:23:00,
2013-01-10 22:33:00,57.2,56.4,30.30,NE,42,1.0,1.0,97,0.00,,,0.04,0,Wunderground v.1.15,2013-01-11 03:33:00,
2013-01-10 22:43:00,57.3,56.5,30.30,North,4,1.0,4.0,97,0.00,,,0.04,0,Wunderground v.1.15,2013-01-11 03:43:00,
2013-01-10 22:53:00,57.4,56.6,30.30,East,95,1.0,1.0,97,0.00,,,0.04,0,Wunderground v.1.15,2013-01-11 03:53:00,
2013-01-10 23:03:00,57.7,57.1,30.30,North,354,1.0,1.0,98,0.00,,,0.04,0,Wunderground v.1.15,2013-01-11 04:03:00,
2013-01-10 23:13:00,57.7,56.9,30.30,North,354,1.0,1.0,97,0.00,,,0.04,0,Wunderground v.1.15,2013-01-11 04:13:00,
2013-01-10 23:23:00,57.7,56.9,30.30,NNE,33,0.0,0.0,97,0.00,,,0.04,0,Wunderground v.1.15,2013-01-11 04:23:00,
2013-01-10 23:33:00,57.7,57.1,30.30,NNE,31,0.0,0.0,98,0.00,,,0.04,0,Wunderground v.1.15,2013-01-11 04:33:00,
2013-01-10 23:43:00,57.8,57.2,30.30,NNE,31,0.0,0.0,98,0.00,,,0.04,0,Wunderground v.1.15,2013-01-11 04:43:00,
2013-01-10 23:53:00,58.0,57.4,30.29,North,11,0.0,0.0,98,0.00,,,0.04,0,Wunderground v.1.15,2013-01-11 04:53:00,